sensor_id;sensor_type;location;lat;lon;timestamp;P1;durP1;ratioP1;P2;durP2;ratioP2
32365;SDS011;18837;46.832;16.838;2023-12-07T00:02:15;35.00;;;23.10;;
32365;SDS011;18837;46.832;16.838;2023-12-07T00:04:40;32.70;;;22.30;;
32365;SDS011;18837;46.832;16.838;2023-12-07T00:07:06;34.43;;;22.87;;
32365;SDS011;18837;46.832;16.838;2023-12-07T00:09:32;32.83;;;22.07;;
32365;SDS011;18837;46.832;16.838;2023-12-07T00:11:58;32.63;;;23.57;;
32365;SDS011;18837;46.832;16.838;2023-12-07T00:14:24;33.23;;;23.07;;
32365;SDS011;18837;46.832;16.838;2023-12-07T00:16:49;38.40;;;23.47;;
32365;SDS011;18837;46.832;16.838;2023-12-07T00:19:15;33.83;;;22.93;;
32365;SDS011;18837;46.832;16.838;2023-12-07T00:21:41;34.80;;;22.27;;
32365;SDS011;18837;46.832;16.838;2023-12-07T00:24:07;31.53;;;21.43;;
32365;SDS011;18837;46.832;16.838;2023-12-07T00:26:33;33.77;;;22.33;;
32365;SDS011;18837;46.832;16.838;2023-12-07T00:29:02;34.07;;;21.93;;
32365;SDS011;18837;46.832;16.838;2023-12-07T00:31:27;36.67;;;23.67;;
32365;SDS011;18837;46.832;16.838;2023-12-07T00:33:53;34.80;;;23.43;;
32365;SDS011;18837;46.832;16.838;2023-12-07T00:36:19;34.90;;;23.87;;
32365;SDS011;18837;46.832;16.838;2023-12-07T00:38:45;32.40;;;22.63;;
32365;SDS011;18837;46.832;16.838;2023-12-07T00:41:11;34.27;;;22.40;;
32365;SDS011;18837;46.832;16.838;2023-12-07T00:43:37;35.90;;;23.73;;
32365;SDS011;18837;46.832;16.838;2023-12-07T00:46:03;34.93;;;23.20;;
32365;SDS011;18837;46.832;16.838;2023-12-07T00:48:28;33.37;;;23.27;;
32365;SDS011;18837;46.832;16.838;2023-12-07T00:50:54;35.17;;;22.43;;
32365;SDS011;18837;46.832;16.838;2023-12-07T00:53:20;35.13;;;23.63;;
32365;SDS011;18837;46.832;16.838;2023-12-07T00:55:46;32.77;;;22.70;;
32365;SDS011;18837;46.832;16.838;2023-12-07T00:58:11;36.53;;;24.07;;
32365;SDS011;18837;46.832;16.838;2023-12-07T01:00:37;33.20;;;22.93;;
32365;SDS011;18837;46.832;16.838;2023-12-07T01:03:03;32.93;;;23.03;;
32365;SDS011;18837;46.832;16.838;2023-12-07T01:05:28;35.40;;;23.33;;
32365;SDS011;18837;46.832;16.838;2023-12-07T01:07:54;34.83;;;22.37;;
32365;SDS011;18837;46.832;16.838;2023-12-07T01:10:20;33.03;;;22.40;;
32365;SDS011;18837;46.832;16.838;2023-12-07T01:12:46;33.63;;;22.53;;
32365;SDS011;18837;46.832;16.838;2023-12-07T01:15:11;35.27;;;23.50;;
32365;SDS011;18837;46.832;16.838;2023-12-07T01:17:37;36.83;;;24.10;;
32365;SDS011;18837;46.832;16.838;2023-12-07T01:20:04;31.13;;;22.83;;
32365;SDS011;18837;46.832;16.838;2023-12-07T01:22:37;36.53;;;22.97;;
32365;SDS011;18837;46.832;16.838;2023-12-07T01:25:04;33.47;;;23.43;;
32365;SDS011;18837;46.832;16.838;2023-12-07T01:27:30;35.40;;;23.53;;
32365;SDS011;18837;46.832;16.838;2023-12-07T01:29:56;34.13;;;23.13;;
32365;SDS011;18837;46.832;16.838;2023-12-07T01:32:22;34.50;;;23.70;;
32365;SDS011;18837;46.832;16.838;2023-12-07T01:34:48;32.97;;;23.73;;
32365;SDS011;18837;46.832;16.838;2023-12-07T01:37:14;33.80;;;22.57;;
32365;SDS011;18837;46.832;16.838;2023-12-07T01:39:43;33.67;;;23.00;;
32365;SDS011;18837;46.832;16.838;2023-12-07T01:42:09;34.70;;;23.03;;
32365;SDS011;18837;46.832;16.838;2023-12-07T01:44:37;37.20;;;23.57;;
32365;SDS011;18837;46.832;16.838;2023-12-07T01:47:03;33.63;;;23.40;;
32365;SDS011;18837;46.832;16.838;2023-12-07T01:49:32;35.63;;;23.27;;
32365;SDS011;18837;46.832;16.838;2023-12-07T01:51:59;38.20;;;25.77;;
32365;SDS011;18837;46.832;16.838;2023-12-07T01:54:26;36.60;;;23.47;;
32365;SDS011;18837;46.832;16.838;2023-12-07T01:56:52;37.33;;;24.13;;
32365;SDS011;18837;46.832;16.838;2023-12-07T01:59:17;36.20;;;24.40;;
32365;SDS011;18837;46.832;16.838;2023-12-07T02:01:45;35.53;;;24.50;;
32365;SDS011;18837;46.832;16.838;2023-12-07T02:04:10;37.63;;;24.67;;
32365;SDS011;18837;46.832;16.838;2023-12-07T02:06:36;33.90;;;23.77;;
32365;SDS011;18837;46.832;16.838;2023-12-07T02:09:02;35.57;;;24.73;;
32365;SDS011;18837;46.832;16.838;2023-12-07T02:11:28;34.63;;;23.33;;
32365;SDS011;18837;46.832;16.838;2023-12-07T02:13:54;34.53;;;22.73;;
32365;SDS011;18837;46.832;16.838;2023-12-07T02:17:07;36.13;;;24.07;;
32365;SDS011;18837;46.832;16.838;2023-12-07T02:22:02;36.97;;;24.37;;
32365;SDS011;18837;46.832;16.838;2023-12-07T02:24:32;34.13;;;23.67;;
32365;SDS011;18837;46.832;16.838;2023-12-07T02:27:02;34.17;;;23.17;;
32365;SDS011;18837;46.832;16.838;2023-12-07T02:29:28;35.17;;;24.83;;
32365;SDS011;18837;46.832;16.838;2023-12-07T02:31:54;39.13;;;25.77;;
32365;SDS011;18837;46.832;16.838;2023-12-07T02:34:19;35.87;;;24.57;;
32365;SDS011;18837;46.832;16.838;2023-12-07T02:36:45;35.97;;;24.67;;
32365;SDS011;18837;46.832;16.838;2023-12-07T02:39:13;35.13;;;23.30;;
32365;SDS011;18837;46.832;16.838;2023-12-07T02:41:40;36.43;;;23.87;;
32365;SDS011;18837;46.832;16.838;2023-12-07T02:44:08;38.60;;;25.27;;
32365;SDS011;18837;46.832;16.838;2023-12-07T02:46:34;37.37;;;24.40;;
32365;SDS011;18837;46.832;16.838;2023-12-07T02:49:00;35.27;;;23.57;;
32365;SDS011;18837;46.832;16.838;2023-12-07T02:51:26;33.00;;;23.83;;
32365;SDS011;18837;46.832;16.838;2023-12-07T02:53:52;38.07;;;25.00;;
32365;SDS011;18837;46.832;16.838;2023-12-07T02:56:17;34.90;;;23.67;;
32365;SDS011;18837;46.832;16.838;2023-12-07T02:58:43;37.33;;;23.97;;
32365;SDS011;18837;46.832;16.838;2023-12-07T03:01:09;35.97;;;25.07;;
32365;SDS011;18837;46.832;16.838;2023-12-07T03:03:35;37.23;;;24.03;;
32365;SDS011;18837;46.832;16.838;2023-12-07T03:06:03;35.03;;;24.67;;
32365;SDS011;18837;46.832;16.838;2023-12-07T03:08:29;37.67;;;25.67;;
32365;SDS011;18837;46.832;16.838;2023-12-07T03:10:55;35.70;;;23.47;;
32365;SDS011;18837;46.832;16.838;2023-12-07T03:13:21;36.00;;;24.53;;
32365;SDS011;18837;46.832;16.838;2023-12-07T03:15:47;35.90;;;25.23;;
32365;SDS011;18837;46.832;16.838;2023-12-07T03:18:13;36.47;;;24.40;;
32365;SDS011;18837;46.832;16.838;2023-12-07T03:20:38;36.73;;;25.13;;
32365;SDS011;18837;46.832;16.838;2023-12-07T03:23:04;36.03;;;24.77;;
32365;SDS011;18837;46.832;16.838;2023-12-07T03:25:30;36.10;;;24.93;;
32365;SDS011;18837;46.832;16.838;2023-12-07T03:27:56;36.37;;;25.27;;
32365;SDS011;18837;46.832;16.838;2023-12-07T03:30:22;34.03;;;24.20;;
32365;SDS011;18837;46.832;16.838;2023-12-07T03:32:47;36.23;;;24.90;;
32365;SDS011;18837;46.832;16.838;2023-12-07T03:35:13;34.37;;;24.17;;
32365;SDS011;18837;46.832;16.838;2023-12-07T03:37:39;34.87;;;24.93;;
32365;SDS011;18837;46.832;16.838;2023-12-07T03:40:05;37.63;;;25.87;;
32365;SDS011;18837;46.832;16.838;2023-12-07T03:42:31;37.37;;;25.43;;
32365;SDS011;18837;46.832;16.838;2023-12-07T03:44:57;39.23;;;25.73;;
32365;SDS011;18837;46.832;16.838;2023-12-07T03:47:22;36.63;;;25.50;;
32365;SDS011;18837;46.832;16.838;2023-12-07T03:49:48;34.07;;;23.77;;
32365;SDS011;18837;46.832;16.838;2023-12-07T03:52:14;37.93;;;25.77;;
32365;SDS011;18837;46.832;16.838;2023-12-07T03:54:39;33.47;;;24.07;;
32365;SDS011;18837;46.832;16.838;2023-12-07T03:57:05;35.57;;;24.40;;
32365;SDS011;18837;46.832;16.838;2023-12-07T03:59:31;41.67;;;26.30;;
32365;SDS011;18837;46.832;16.838;2023-12-07T04:01:56;37.80;;;25.37;;
32365;SDS011;18837;46.832;16.838;2023-12-07T04:04:22;33.67;;;24.20;;
32365;SDS011;18837;46.832;16.838;2023-12-07T04:06:48;36.10;;;25.93;;
32365;SDS011;18837;46.832;16.838;2023-12-07T04:09:14;36.17;;;24.33;;
32365;SDS011;18837;46.832;16.838;2023-12-07T04:11:40;36.33;;;25.33;;
32365;SDS011;18837;46.832;16.838;2023-12-07T04:14:06;36.20;;;24.47;;
32365;SDS011;18837;46.832;16.838;2023-12-07T04:16:31;37.50;;;25.30;;
32365;SDS011;18837;46.832;16.838;2023-12-07T04:18:57;34.53;;;23.97;;
32365;SDS011;18837;46.832;16.838;2023-12-07T04:21:23;35.70;;;24.67;;
32365;SDS011;18837;46.832;16.838;2023-12-07T04:23:48;37.47;;;24.27;;
32365;SDS011;18837;46.832;16.838;2023-12-07T04:26:14;37.00;;;25.10;;
32365;SDS011;18837;46.832;16.838;2023-12-07T04:28:42;37.90;;;25.17;;
32365;SDS011;18837;46.832;16.838;2023-12-07T04:31:07;35.70;;;24.87;;
32365;SDS011;18837;46.832;16.838;2023-12-07T04:33:33;35.67;;;24.03;;
32365;SDS011;18837;46.832;16.838;2023-12-07T04:35:59;33.00;;;23.43;;
32365;SDS011;18837;46.832;16.838;2023-12-07T04:38:25;35.73;;;23.90;;
32365;SDS011;18837;46.832;16.838;2023-12-07T04:40:51;35.70;;;23.60;;
32365;SDS011;18837;46.832;16.838;2023-12-07T04:43:17;35.87;;;24.60;;
32365;SDS011;18837;46.832;16.838;2023-12-07T04:45:43;35.20;;;23.80;;
32365;SDS011;18837;46.832;16.838;2023-12-07T04:48:08;36.73;;;24.73;;
32365;SDS011;18837;46.832;16.838;2023-12-07T04:50:34;36.07;;;23.83;;
32365;SDS011;18837;46.832;16.838;2023-12-07T04:53:00;34.23;;;24.13;;
32365;SDS011;18837;46.832;16.838;2023-12-07T04:55:25;36.40;;;23.80;;
32365;SDS011;18837;46.832;16.838;2023-12-07T04:57:51;34.10;;;22.87;;
32365;SDS011;18837;46.832;16.838;2023-12-07T05:00:17;35.70;;;24.13;;
32365;SDS011;18837;46.832;16.838;2023-12-07T05:02:44;33.97;;;23.53;;
32365;SDS011;18837;46.832;16.838;2023-12-07T05:05:11;34.67;;;23.63;;
32365;SDS011;18837;46.832;16.838;2023-12-07T05:07:37;35.73;;;24.23;;
32365;SDS011;18837;46.832;16.838;2023-12-07T05:10:03;33.43;;;23.67;;
32365;SDS011;18837;46.832;16.838;2023-12-07T05:12:29;32.93;;;23.77;;
32365;SDS011;18837;46.832;16.838;2023-12-07T05:14:55;34.47;;;22.67;;
32365;SDS011;18837;46.832;16.838;2023-12-07T05:17:20;34.00;;;24.10;;
32365;SDS011;18837;46.832;16.838;2023-12-07T05:19:47;32.97;;;23.37;;
32365;SDS011;18837;46.832;16.838;2023-12-07T05:22:13;34.83;;;23.93;;
32365;SDS011;18837;46.832;16.838;2023-12-07T05:24:39;33.63;;;22.77;;
32365;SDS011;18837;46.832;16.838;2023-12-07T05:27:05;35.70;;;23.07;;
32365;SDS011;18837;46.832;16.838;2023-12-07T05:29:31;31.80;;;22.70;;
32365;SDS011;18837;46.832;16.838;2023-12-07T05:31:57;35.80;;;23.73;;
32365;SDS011;18837;46.832;16.838;2023-12-07T05:34:23;33.90;;;23.53;;
32365;SDS011;18837;46.832;16.838;2023-12-07T05:36:48;32.93;;;23.10;;
32365;SDS011;18837;46.832;16.838;2023-12-07T05:39:14;33.70;;;22.53;;
32365;SDS011;18837;46.832;16.838;2023-12-07T05:41:42;34.93;;;23.60;;
32365;SDS011;18837;46.832;16.838;2023-12-07T05:44:08;36.07;;;24.40;;
32365;SDS011;18837;46.832;16.838;2023-12-07T05:46:35;34.97;;;23.90;;
32365;SDS011;18837;46.832;16.838;2023-12-07T05:49:01;33.20;;;22.50;;
32365;SDS011;18837;46.832;16.838;2023-12-07T05:51:27;32.40;;;22.70;;
32365;SDS011;18837;46.832;16.838;2023-12-07T05:53:52;33.07;;;22.93;;
32365;SDS011;18837;46.832;16.838;2023-12-07T05:56:18;32.50;;;22.70;;
32365;SDS011;18837;46.832;16.838;2023-12-07T05:58:48;34.00;;;24.33;;
32365;SDS011;18837;46.832;16.838;2023-12-07T06:01:16;36.00;;;24.00;;
32365;SDS011;18837;46.832;16.838;2023-12-07T06:03:42;33.80;;;22.97;;
32365;SDS011;18837;46.832;16.838;2023-12-07T06:06:09;33.57;;;24.53;;
32365;SDS011;18837;46.832;16.838;2023-12-07T06:08:37;31.03;;;22.30;;
32365;SDS011;18837;46.832;16.838;2023-12-07T06:11:02;32.47;;;23.07;;
32365;SDS011;18837;46.832;16.838;2023-12-07T06:13:28;35.20;;;23.73;;
32365;SDS011;18837;46.832;16.838;2023-12-07T06:15:55;32.03;;;22.67;;
32365;SDS011;18837;46.832;16.838;2023-12-07T06:18:21;36.40;;;23.80;;
32365;SDS011;18837;46.832;16.838;2023-12-07T06:20:47;31.27;;;23.40;;
32365;SDS011;18837;46.832;16.838;2023-12-07T06:23:14;31.07;;;22.23;;
32365;SDS011;18837;46.832;16.838;2023-12-07T06:25:39;36.17;;;24.23;;
32365;SDS011;18837;46.832;16.838;2023-12-07T06:28:06;34.53;;;23.97;;
32365;SDS011;18837;46.832;16.838;2023-12-07T06:30:31;32.30;;;22.47;;
32365;SDS011;18837;46.832;16.838;2023-12-07T06:32:57;31.87;;;22.53;;
32365;SDS011;18837;46.832;16.838;2023-12-07T06:35:23;30.83;;;22.07;;
32365;SDS011;18837;46.832;16.838;2023-12-07T06:37:49;32.77;;;22.57;;
32365;SDS011;18837;46.832;16.838;2023-12-07T06:40:15;31.43;;;22.40;;
32365;SDS011;18837;46.832;16.838;2023-12-07T06:42:40;33.90;;;23.10;;
32365;SDS011;18837;46.832;16.838;2023-12-07T06:45:06;33.67;;;22.80;;
32365;SDS011;18837;46.832;16.838;2023-12-07T06:47:39;31.73;;;21.83;;
32365;SDS011;18837;46.832;16.838;2023-12-07T06:50:07;32.20;;;21.97;;
32365;SDS011;18837;46.832;16.838;2023-12-07T06:52:35;32.90;;;23.23;;
32365;SDS011;18837;46.832;16.838;2023-12-07T06:55:04;35.00;;;23.77;;
32365;SDS011;18837;46.832;16.838;2023-12-07T06:57:30;32.87;;;23.43;;
32365;SDS011;18837;46.832;16.838;2023-12-07T06:59:57;34.30;;;23.63;;
32365;SDS011;18837;46.832;16.838;2023-12-07T07:02:22;36.97;;;23.90;;
32365;SDS011;18837;46.832;16.838;2023-12-07T07:04:48;37.20;;;24.37;;
32365;SDS011;18837;46.832;16.838;2023-12-07T07:07:15;35.70;;;23.77;;
32365;SDS011;18837;46.832;16.838;2023-12-07T07:09:41;34.20;;;23.17;;
32365;SDS011;18837;46.832;16.838;2023-12-07T07:12:07;31.37;;;22.43;;
32365;SDS011;18837;46.832;16.838;2023-12-07T07:14:33;34.50;;;23.83;;
32365;SDS011;18837;46.832;16.838;2023-12-07T07:16:59;34.53;;;24.07;;
32365;SDS011;18837;46.832;16.838;2023-12-07T07:19:25;36.33;;;25.20;;
32365;SDS011;18837;46.832;16.838;2023-12-07T07:21:51;37.47;;;26.07;;
32365;SDS011;18837;46.832;16.838;2023-12-07T07:24:16;39.00;;;25.40;;
32365;SDS011;18837;46.832;16.838;2023-12-07T07:26:42;37.47;;;25.90;;
32365;SDS011;18837;46.832;16.838;2023-12-07T07:29:07;39.73;;;26.80;;
32365;SDS011;18837;46.832;16.838;2023-12-07T07:31:33;39.03;;;26.80;;
32365;SDS011;18837;46.832;16.838;2023-12-07T07:34:00;41.13;;;27.20;;
32365;SDS011;18837;46.832;16.838;2023-12-07T07:36:26;37.50;;;26.50;;
32365;SDS011;18837;46.832;16.838;2023-12-07T07:38:52;39.10;;;27.73;;
32365;SDS011;18837;46.832;16.838;2023-12-07T07:41:19;41.07;;;28.27;;
32365;SDS011;18837;46.832;16.838;2023-12-07T07:43:44;41.03;;;27.50;;
32365;SDS011;18837;46.832;16.838;2023-12-07T07:46:10;41.07;;;28.00;;
32365;SDS011;18837;46.832;16.838;2023-12-07T07:48:36;40.63;;;27.97;;
32365;SDS011;18837;46.832;16.838;2023-12-07T07:51:02;43.57;;;29.87;;
32365;SDS011;18837;46.832;16.838;2023-12-07T07:53:28;45.73;;;30.17;;
32365;SDS011;18837;46.832;16.838;2023-12-07T07:55:54;45.30;;;29.47;;
32365;SDS011;18837;46.832;16.838;2023-12-07T07:58:20;46.93;;;30.30;;
32365;SDS011;18837;46.832;16.838;2023-12-07T08:00:46;44.47;;;30.40;;
32365;SDS011;18837;46.832;16.838;2023-12-07T08:03:12;41.27;;;29.23;;
32365;SDS011;18837;46.832;16.838;2023-12-07T08:05:38;44.97;;;31.10;;
32365;SDS011;18837;46.832;16.838;2023-12-07T08:08:04;45.93;;;31.60;;
32365;SDS011;18837;46.832;16.838;2023-12-07T08:10:30;45.33;;;30.87;;
32365;SDS011;18837;46.832;16.838;2023-12-07T08:12:55;46.73;;;31.83;;
32365;SDS011;18837;46.832;16.838;2023-12-07T08:15:21;49.50;;;32.60;;
32365;SDS011;18837;46.832;16.838;2023-12-07T08:17:47;48.87;;;32.97;;
32365;SDS011;18837;46.832;16.838;2023-12-07T08:20:13;54.17;;;35.00;;
32365;SDS011;18837;46.832;16.838;2023-12-07T08:22:39;59.27;;;37.90;;
32365;SDS011;18837;46.832;16.838;2023-12-07T08:25:09;52.97;;;36.37;;
32365;SDS011;18837;46.832;16.838;2023-12-07T08:27:36;56.40;;;35.93;;
32365;SDS011;18837;46.832;16.838;2023-12-07T08:30:03;51.83;;;35.73;;
32365;SDS011;18837;46.832;16.838;2023-12-07T08:32:29;53.03;;;37.03;;
32365;SDS011;18837;46.832;16.838;2023-12-07T08:34:56;53.57;;;34.87;;
32365;SDS011;18837;46.832;16.838;2023-12-07T08:37:21;52.37;;;34.77;;
32365;SDS011;18837;46.832;16.838;2023-12-07T08:39:47;49.63;;;35.63;;
32365;SDS011;18837;46.832;16.838;2023-12-07T08:42:14;51.23;;;36.27;;
32365;SDS011;18837;46.832;16.838;2023-12-07T08:44:39;52.63;;;35.63;;
32365;SDS011;18837;46.832;16.838;2023-12-07T08:47:06;48.87;;;34.80;;
32365;SDS011;18837;46.832;16.838;2023-12-07T08:49:32;52.33;;;36.90;;
32365;SDS011;18837;46.832;16.838;2023-12-07T08:51:58;49.73;;;33.93;;
32365;SDS011;18837;46.832;16.838;2023-12-07T08:54:23;49.23;;;33.97;;
32365;SDS011;18837;46.832;16.838;2023-12-07T08:56:49;50.47;;;35.67;;
32365;SDS011;18837;46.832;16.838;2023-12-07T08:59:15;48.00;;;33.10;;
32365;SDS011;18837;46.832;16.838;2023-12-07T09:01:41;49.00;;;34.70;;
32365;SDS011;18837;46.832;16.838;2023-12-07T09:04:06;48.70;;;34.67;;
32365;SDS011;18837;46.832;16.838;2023-12-07T09:06:33;47.83;;;33.23;;
32365;SDS011;18837;46.832;16.838;2023-12-07T09:08:59;48.50;;;33.53;;
32365;SDS011;18837;46.832;16.838;2023-12-07T09:11:25;47.30;;;32.93;;
32365;SDS011;18837;46.832;16.838;2023-12-07T09:13:50;47.40;;;33.23;;
32365;SDS011;18837;46.832;16.838;2023-12-07T09:16:16;50.53;;;34.63;;
32365;SDS011;18837;46.832;16.838;2023-12-07T09:18:42;46.63;;;32.37;;
32365;SDS011;18837;46.832;16.838;2023-12-07T09:21:10;45.63;;;33.03;;
32365;SDS011;18837;46.832;16.838;2023-12-07T09:23:35;52.33;;;35.17;;
32365;SDS011;18837;46.832;16.838;2023-12-07T09:26:02;50.20;;;34.00;;
32365;SDS011;18837;46.832;16.838;2023-12-07T09:28:28;51.77;;;33.73;;
32365;SDS011;18837;46.832;16.838;2023-12-07T09:30:54;46.50;;;32.90;;
32365;SDS011;18837;46.832;16.838;2023-12-07T09:33:20;49.40;;;33.57;;
32365;SDS011;18837;46.832;16.838;2023-12-07T09:35:46;46.60;;;33.23;;
32365;SDS011;18837;46.832;16.838;2023-12-07T09:38:12;45.93;;;33.67;;
32365;SDS011;18837;46.832;16.838;2023-12-07T09:40:38;42.67;;;32.47;;
32365;SDS011;18837;46.832;16.838;2023-12-07T09:43:03;47.60;;;33.73;;
32365;SDS011;18837;46.832;16.838;2023-12-07T09:45:29;43.33;;;31.93;;
32365;SDS011;18837;46.832;16.838;2023-12-07T09:47:55;46.63;;;32.87;;
32365;SDS011;18837;46.832;16.838;2023-12-07T09:50:22;46.93;;;32.97;;
32365;SDS011;18837;46.832;16.838;2023-12-07T09:52:50;42.00;;;30.27;;
32365;SDS011;18837;46.832;16.838;2023-12-07T09:55:17;43.93;;;31.47;;
32365;SDS011;18837;46.832;16.838;2023-12-07T09:57:43;45.03;;;32.03;;
32365;SDS011;18837;46.832;16.838;2023-12-07T10:00:11;45.47;;;31.30;;
32365;SDS011;18837;46.832;16.838;2023-12-07T10:02:39;42.17;;;31.27;;
32365;SDS011;18837;46.832;16.838;2023-12-07T10:05:09;40.93;;;30.37;;
32365;SDS011;18837;46.832;16.838;2023-12-07T10:07:41;45.40;;;31.67;;
32365;SDS011;18837;46.832;16.838;2023-12-07T10:10:08;43.37;;;30.57;;
32365;SDS011;18837;46.832;16.838;2023-12-07T10:12:44;39.87;;;29.63;;
32365;SDS011;18837;46.832;16.838;2023-12-07T10:15:17;43.83;;;31.93;;
32365;SDS011;18837;46.832;16.838;2023-12-07T10:17:57;43.23;;;29.80;;
32365;SDS011;18837;46.832;16.838;2023-12-07T10:20:25;43.60;;;30.53;;
32365;SDS011;18837;46.832;16.838;2023-12-07T10:23:02;39.37;;;29.23;;
32365;SDS011;18837;46.832;16.838;2023-12-07T10:25:38;40.20;;;29.63;;
32365;SDS011;18837;46.832;16.838;2023-12-07T10:28:05;39.13;;;28.13;;
32365;SDS011;18837;46.832;16.838;2023-12-07T10:30:36;36.17;;;26.77;;
32365;SDS011;18837;46.832;16.838;2023-12-07T10:33:06;39.93;;;30.10;;
32365;SDS011;18837;46.832;16.838;2023-12-07T10:35:32;39.23;;;28.57;;
32365;SDS011;18837;46.832;16.838;2023-12-07T10:37:58;39.37;;;27.40;;
32365;SDS011;18837;46.832;16.838;2023-12-07T10:40:24;35.23;;;27.53;;
32365;SDS011;18837;46.832;16.838;2023-12-07T10:42:51;37.80;;;28.10;;
32365;SDS011;18837;46.832;16.838;2023-12-07T10:45:21;36.60;;;26.00;;
32365;SDS011;18837;46.832;16.838;2023-12-07T10:47:50;36.20;;;27.13;;
32365;SDS011;18837;46.832;16.838;2023-12-07T10:50:21;37.50;;;26.93;;
32365;SDS011;18837;46.832;16.838;2023-12-07T10:52:50;36.40;;;26.20;;
32365;SDS011;18837;46.832;16.838;2023-12-07T10:55:20;34.13;;;25.97;;
32365;SDS011;18837;46.832;16.838;2023-12-07T10:57:51;33.83;;;25.07;;
32365;SDS011;18837;46.832;16.838;2023-12-07T11:00:19;32.83;;;25.30;;
32365;SDS011;18837;46.832;16.838;2023-12-07T11:02:48;29.47;;;22.70;;
32365;SDS011;18837;46.832;16.838;2023-12-07T11:05:17;31.53;;;23.67;;
32365;SDS011;18837;46.832;16.838;2023-12-07T11:11:00;30.50;;;23.37;;
32365;SDS011;18837;46.832;16.838;2023-12-07T11:13:23;29.73;;;22.90;;
32365;SDS011;18837;46.832;16.838;2023-12-07T11:15:54;31.43;;;22.50;;
32365;SDS011;18837;46.832;16.838;2023-12-07T11:18:20;32.63;;;24.03;;
32365;SDS011;18837;46.832;16.838;2023-12-07T11:20:46;28.27;;;21.30;;
32365;SDS011;18837;46.832;16.838;2023-12-07T11:23:28;28.90;;;20.97;;
32365;SDS011;18837;46.832;16.838;2023-12-07T11:26:06;30.43;;;22.87;;
32365;SDS011;18837;46.832;16.838;2023-12-07T11:28:36;27.13;;;21.10;;
32365;SDS011;18837;46.832;16.838;2023-12-07T11:31:04;27.67;;;19.97;;
32365;SDS011;18837;46.832;16.838;2023-12-07T11:33:32;27.27;;;20.47;;
32365;SDS011;18837;46.832;16.838;2023-12-07T11:38:31;27.47;;;20.23;;
32365;SDS011;18837;46.832;16.838;2023-12-07T11:41:02;24.33;;;18.93;;
32365;SDS011;18837;46.832;16.838;2023-12-07T11:46:08;23.07;;;18.93;;
32365;SDS011;18837;46.832;16.838;2023-12-07T11:48:35;24.60;;;18.70;;
32365;SDS011;18837;46.832;16.838;2023-12-07T11:51:04;25.53;;;18.73;;
32365;SDS011;18837;46.832;16.838;2023-12-07T11:53:36;22.67;;;17.73;;
32365;SDS011;18837;46.832;16.838;2023-12-07T11:56:03;25.10;;;18.90;;
32365;SDS011;18837;46.832;16.838;2023-12-07T11:58:43;24.07;;;17.73;;
32365;SDS011;18837;46.832;16.838;2023-12-07T12:01:11;24.47;;;17.17;;
32365;SDS011;18837;46.832;16.838;2023-12-07T12:03:37;21.37;;;16.53;;
32365;SDS011;18837;46.832;16.838;2023-12-07T12:06:04;22.60;;;15.80;;
32365;SDS011;18837;46.832;16.838;2023-12-07T12:08:31;20.27;;;16.77;;
32365;SDS011;18837;46.832;16.838;2023-12-07T12:10:57;22.17;;;16.20;;
32365;SDS011;18837;46.832;16.838;2023-12-07T12:13:29;21.70;;;16.23;;
32365;SDS011;18837;46.832;16.838;2023-12-07T12:15:58;19.93;;;15.57;;
32365;SDS011;18837;46.832;16.838;2023-12-07T12:18:26;20.50;;;15.57;;
32365;SDS011;18837;46.832;16.838;2023-12-07T12:20:53;19.27;;;14.47;;
32365;SDS011;18837;46.832;16.838;2023-12-07T12:23:19;20.00;;;15.07;;
32365;SDS011;18837;46.832;16.838;2023-12-07T12:25:46;19.13;;;15.53;;
32365;SDS011;18837;46.832;16.838;2023-12-07T12:28:14;17.27;;;13.80;;
32365;SDS011;18837;46.832;16.838;2023-12-07T12:30:44;17.47;;;14.13;;
32365;SDS011;18837;46.832;16.838;2023-12-07T12:33:10;18.33;;;14.30;;
32365;SDS011;18837;46.832;16.838;2023-12-07T12:35:39;18.67;;;14.57;;
32365;SDS011;18837;46.832;16.838;2023-12-07T12:38:09;18.80;;;14.20;;
32365;SDS011;18837;46.832;16.838;2023-12-07T12:40:36;18.07;;;13.90;;
32365;SDS011;18837;46.832;16.838;2023-12-07T12:43:02;17.50;;;12.80;;
32365;SDS011;18837;46.832;16.838;2023-12-07T12:45:28;17.70;;;13.50;;
32365;SDS011;18837;46.832;16.838;2023-12-07T12:47:53;17.57;;;13.50;;
32365;SDS011;18837;46.832;16.838;2023-12-07T12:53:09;17.23;;;12.67;;
32365;SDS011;18837;46.832;16.838;2023-12-07T12:55:36;16.30;;;12.43;;
32365;SDS011;18837;46.832;16.838;2023-12-07T12:58:04;15.10;;;11.90;;
32365;SDS011;18837;46.832;16.838;2023-12-07T13:00:32;15.93;;;12.07;;
32365;SDS011;18837;46.832;16.838;2023-12-07T13:02:58;14.80;;;11.30;;
32365;SDS011;18837;46.832;16.838;2023-12-07T13:05:33;17.03;;;12.13;;
32365;SDS011;18837;46.832;16.838;2023-12-07T13:08:34;15.87;;;11.23;;
32365;SDS011;18837;46.832;16.838;2023-12-07T13:11:00;14.33;;;11.33;;
32365;SDS011;18837;46.832;16.838;2023-12-07T13:13:26;13.73;;;10.60;;
32365;SDS011;18837;46.832;16.838;2023-12-07T13:15:52;14.40;;;10.77;;
32365;SDS011;18837;46.832;16.838;2023-12-07T13:18:18;13.10;;;10.77;;
32365;SDS011;18837;46.832;16.838;2023-12-07T13:20:44;12.20;;;9.87;;
32365;SDS011;18837;46.832;16.838;2023-12-07T13:23:10;13.80;;;10.00;;
32365;SDS011;18837;46.832;16.838;2023-12-07T13:25:35;11.57;;;9.27;;
32365;SDS011;18837;46.832;16.838;2023-12-07T13:28:01;13.03;;;10.50;;
32365;SDS011;18837;46.832;16.838;2023-12-07T13:30:27;12.00;;;9.60;;
32365;SDS011;18837;46.832;16.838;2023-12-07T13:32:54;11.53;;;9.53;;
32365;SDS011;18837;46.832;16.838;2023-12-07T13:35:20;11.17;;;9.40;;
32365;SDS011;18837;46.832;16.838;2023-12-07T13:37:47;11.33;;;8.93;;
32365;SDS011;18837;46.832;16.838;2023-12-07T13:40:25;12.30;;;9.53;;
32365;SDS011;18837;46.832;16.838;2023-12-07T13:42:52;11.93;;;9.67;;
32365;SDS011;18837;46.832;16.838;2023-12-07T13:45:20;11.83;;;9.50;;
32365;SDS011;18837;46.832;16.838;2023-12-07T13:47:46;11.77;;;9.40;;
32365;SDS011;18837;46.832;16.838;2023-12-07T13:50:13;10.43;;;8.37;;
32365;SDS011;18837;46.832;16.838;2023-12-07T13:52:39;11.10;;;8.20;;
32365;SDS011;18837;46.832;16.838;2023-12-07T13:55:06;9.77;;;7.57;;
32365;SDS011;18837;46.832;16.838;2023-12-07T13:57:32;10.30;;;7.80;;
32365;SDS011;18837;46.832;16.838;2023-12-07T14:00:03;10.70;;;8.00;;
32365;SDS011;18837;46.832;16.838;2023-12-07T14:02:29;10.23;;;7.57;;
32365;SDS011;18837;46.832;16.838;2023-12-07T14:04:55;10.43;;;7.80;;
32365;SDS011;18837;46.832;16.838;2023-12-07T14:07:21;9.85;;;8.32;;
32365;SDS011;18837;46.832;16.838;2023-12-07T14:09:49;12.23;;;8.50;;
32365;SDS011;18837;46.832;16.838;2023-12-07T14:12:15;10.03;;;7.63;;
32365;SDS011;18837;46.832;16.838;2023-12-07T14:15:01;9.83;;;7.70;;
32365;SDS011;18837;46.832;16.838;2023-12-07T14:20:21;10.70;;;7.70;;
32365;SDS011;18837;46.832;16.838;2023-12-07T14:22:49;9.27;;;7.27;;
32365;SDS011;18837;46.832;16.838;2023-12-07T14:25:14;10.23;;;7.43;;
32365;SDS011;18837;46.832;16.838;2023-12-07T14:27:42;10.03;;;7.83;;